Time;durP1;ratioP1;P1;durP2;ratioP2;P2;SDS_P1;SDS_P2;PMS_P1;PMS_P2;Temp;Humidity;BMP_temperature;BMP_pressure;BME280_temperature;BME280_humidity;BME280_pressure;Samples;Min_cycle;Max_cycle;Signal;HPM_P1;HPM_P2
2024/02/10 00:01:17;;;;;;;9.40;5.80;;;;;;;21.44;34.26;99876.69;102840;1293;73553;-81
2024/02/10 00:03:45;;;;;;;10.60;6.50;;;;;;;21.44;34.26;99881.50;102684;1289;60868;-79
2024/02/10 00:06:15;;;;;;;9.20;6.00;;;;;;;21.43;34.23;99882.25;102672;1291;60714;-82
2024/02/10 00:08:44;;;;;;;9.30;6.10;;;;;;;21.44;34.31;99881.11;102714;1291;73399;-81
2024/02/10 00:11:13;;;;;;;11.00;6.60;;;;;;;21.44;34.37;99879.91;102601;1290;73639;-82
2024/02/10 00:13:41;;;;;;;9.30;6.00;;;;;;;21.43;34.34;99878.32;102717;1290;60758;-81
2024/02/10 00:16:08;;;;;;;11.00;5.70;;;;;;;21.43;34.27;99876.89;102690;1291;61189;-82
2024/02/10 00:18:34;;;;;;;9.10;6.10;;;;;;;21.43;34.26;99879.04;102674;1289;60611;-79
2024/02/10 00:21:01;;;;;;;9.20;6.00;;;;;;;21.44;34.40;99886.33;102868;1290;73690;-79
2024/02/10 00:23:28;;;;;;;10.00;6.20;;;;;;;21.43;34.38;99887.43;102656;1289;61736;-80
2024/02/10 00:25:54;;;;;;;11.10;6.20;;;;;;;21.43;34.30;99887.96;102663;1291;60948;-79
2024/02/10 00:28:20;;;;;;;10.60;6.90;;;;;;;21.43;34.39;99885.88;102900;1291;60526;-80
2024/02/10 00:30:46;;;;;;;11.20;6.40;;;;;;;21.43;34.41;99876.88;102676;1291;60610;-80
2024/02/10 00:33:12;;;;;;;9.80;6.40;;;;;;;21.43;34.34;99866.55;102751;1292;60964;-79
2024/02/10 00:35:38;;;;;;;10.60;6.20;;;;;;;21.43;34.32;99866.90;102692;1289;61697;-79
2024/02/10 00:38:05;;;;;;;13.20;6.20;;;;;;;21.43;34.31;99865.31;102698;1295;61090;-80
2024/02/10 00:40:31;;;;;;;9.70;6.00;;;;;;;21.42;34.34;99871.59;102709;1292;61470;-81
2024/02/10 00:42:58;;;;;;;11.50;6.50;;;;;;;21.43;34.39;99871.02;102929;1291;60486;-80
2024/02/10 00:45:23;;;;;;;10.40;6.60;;;;;;;21.42;34.32;99859.23;102695;1290;61322;-79
2024/02/10 00:47:49;;;;;;;9.40;6.60;;;;;;;21.42;34.28;99854.05;102907;1292;60623;-80
2024/02/10 00:50:17;;;;;;;11.60;6.40;;;;;;;21.42;34.35;99858.38;102749;1295;60560;-79
2024/02/10 00:52:48;;;;;;;10.70;6.20;;;;;;;21.42;34.42;99846.39;102748;1289;74163;-80
2024/02/10 00:55:13;;;;;;;11.50;6.60;;;;;;;21.41;34.44;99837.48;102681;1289;61159;-80
2024/02/10 00:57:40;;;;;;;12.10;6.80;;;;;;;21.41;34.35;99838.71;102670;1291;60657;-79
2024/02/10 01:00:16;;;;;;;11.30;6.90;;;;;;;21.41;34.45;99831.04;102670;1292;61826;-80
2024/02/10 01:02:45;;;;;;;14.50;7.60;;;;;;;21.41;34.34;99826.96;102655;1295;73702;-80
2024/02/10 01:05:12;;;;;;;11.50;6.70;;;;;;;21.41;34.38;99844.48;102820;1291;61789;-80
2024/02/10 01:07:39;;;;;;;11.90;6.70;;;;;;;21.41;34.27;99839.15;102922;1291;60604;-79
2024/02/10 01:10:06;;;;;;;10.20;6.70;;;;;;;21.41;34.53;99840.91;102687;1296;72444;-79
2024/02/10 01:12:33;;;;;;;11.20;6.60;;;;;;;21.41;34.40;99837.54;102705;1290;73643;-79
2024/02/10 01:14:58;;;;;;;12.20;7.00;;;;;;;21.41;34.30;99829.48;102645;1293;61737;-81
2024/02/10 01:17:27;;;;;;;12.90;7.40;;;;;;;21.40;34.45;99829.34;102884;1291;60578;-80
2024/02/10 01:19:54;;;;;;;10.90;6.50;;;;;;;21.41;34.42;99828.42;102899;1293;72376;-80
2024/02/10 01:22:25;;;;;;;9.40;6.80;;;;;;;21.40;34.38;99829.36;102689;1291;74803;-81
2024/02/10 01:24:54;;;;;;;11.90;7.30;;;;;;;21.40;34.38;99827.92;102931;1291;60595;-81
2024/02/10 01:27:26;;;;;;;10.00;6.40;;;;;;;21.40;34.35;99832.40;102710;1291;60504;-80
2024/02/10 01:29:56;;;;;;;10.20;6.50;;;;;;;21.40;34.31;99829.24;102927;1291;73489;-80
2024/02/10 01:32:23;;;;;;;12.50;7.20;;;;;;;21.39;34.43;99824.41;102726;1289;73828;-80
2024/02/10 01:34:50;;;;;;;11.50;7.10;;;;;;;21.39;34.30;99822.11;102679;1292;60597;-78
2024/02/10 01:37:19;;;;;;;11.00;6.80;;;;;;;21.39;34.49;99823.54;102689;1295;60966;-81
2024/02/10 01:39:48;;;;;;;10.80;7.00;;;;;;;21.39;34.42;99823.93;102664;1290;72482;-79
2024/02/10 01:42:27;;;;;;;11.70;7.20;;;;;;;21.39;34.47;99822.48;102603;1291;76765;-78
2024/02/10 01:44:53;;;;;;;12.20;7.40;;;;;;;21.38;34.49;99818.61;102750;1291;60509;-79
2024/02/10 01:47:20;;;;;;;12.10;7.30;;;;;;;21.39;34.42;99823.95;102833;1290;61777;-81
2024/02/10 01:49:45;;;;;;;11.70;7.10;;;;;;;21.38;34.40;99829.72;102760;1291;60566;-78
2024/02/10 01:52:12;;;;;;;11.70;7.60;;;;;;;21.38;34.37;99829.92;102674;1289;60991;-80
2024/02/10 01:54:38;;;;;;;10.80;7.40;;;;;;;21.38;34.40;99830.07;102704;1291;60653;-80
2024/02/10 01:57:05;;;;;;;13.30;7.70;;;;;;;21.38;34.38;99827.27;102680;1289;60700;-79
2024/02/10 01:59:35;;;;;;;10.40;7.30;;;;;;;21.38;34.40;99827.10;102649;1293;60652;-83
2024/02/10 02:02:03;;;;;;;12.40;7.80;;;;;;;21.37;34.47;99821.21;102828;1294;73664;-80
2024/02/10 02:04:35;;;;;;;10.90;7.10;;;;;;;21.37;34.51;99821.04;102691;1294;61041;-79
2024/02/10 02:07:03;;;;;;;11.70;7.80;;;;;;;21.37;34.43;99823.02;102694;1291;61708;-81
2024/02/10 02:09:28;;;;;;;14.30;7.50;;;;;;;21.37;34.48;99827.86;102826;1289;73165;-82
2024/02/10 02:11:54;;;;;;;14.00;7.60;;;;;;;21.37;34.52;99830.94;102792;1290;61101;-79
2024/02/10 02:14:20;;;;;;;10.80;7.30;;;;;;;21.37;34.35;99834.66;102787;1291;61625;-81
2024/02/10 02:16:46;;;;;;;11.60;7.70;;;;;;;21.37;34.31;99829.70;102809;1291;60618;-80
2024/02/10 02:19:33;;;;;;;13.90;7.80;;;;;;;21.36;34.27;99826.66;102791;1294;60599;-79
2024/02/10 02:22:03;;;;;;;12.90;7.30;;;;;;;21.36;34.37;99827.76;102780;1291;74253;-80
2024/02/10 02:24:29;;;;;;;12.20;7.80;;;;;;;21.36;34.38;99826.00;102712;1292;61648;-80
2024/02/10 02:26:55;;;;;;;12.60;7.70;;;;;;;21.36;34.43;99833.36;102650;1289;60509;-79
2024/02/10 02:29:21;;;;;;;12.50;7.90;;;;;;;21.36;34.38;99825.45;102691;1291;60580;-78
2024/02/10 02:31:47;;;;;;;12.50;7.80;;;;;;;21.36;34.40;99826.17;102660;1291;61685;-79
2024/02/10 02:34:12;;;;;;;12.20;7.20;;;;;;;21.35;34.30;99828.02;102742;1294;60744;-79
2024/02/10 02:36:39;;;;;;;12.20;7.60;;;;;;;21.35;34.46;99829.99;102682;1291;61744;-79
2024/02/10 02:39:05;;;;;;;12.10;7.10;;;;;;;21.35;34.31;99824.48;102631;1296;60548;-78
2024/02/10 02:41:31;;;;;;;11.80;7.70;;;;;;;21.35;34.36;99822.70;102686;1292;61797;-79
2024/02/10 02:43:57;;;;;;;13.10;7.30;;;;;;;21.35;34.38;99825.21;102751;1289;60473;-80
2024/02/10 02:46:24;;;;;;;13.60;7.50;;;;;;;21.34;34.35;99823.45;102732;1296;61056;-78
2024/02/10 02:48:54;;;;;;;13.70;7.40;;;;;;;21.34;34.36;99821.83;102811;1291;60485;-80
2024/02/10 02:51:21;;;;;;;13.20;7.60;;;;;;;21.34;34.39;99822.55;102670;1291;72562;-79
2024/02/10 02:53:51;;;;;;;12.00;7.40;;;;;;;21.34;34.45;99821.16;102743;1291;60537;-80
2024/02/10 02:56:20;;;;;;;13.00;8.30;;;;;;;21.34;34.39;99822.05;102698;1295;60492;-79
2024/02/10 02:58:57;;;;;;;12.40;7.60;;;;;;;21.34;34.48;99818.69;102663;1290;60599;-80
2024/02/10 03:01:24;;;;;;;12.00;6.90;;;;;;;21.33;34.43;99816.41;102667;1291;72333;-80
2024/02/10 03:03:52;;;;;;;12.90;7.70;;;;;;;21.33;34.55;99817.29;102753;1291;60625;-80
2024/02/10 03:06:24;;;;;;;;;;;;;;;21.33;34.45;99823.92;102722;1296;60648;-80
2024/02/10 03:08:50;;;;;;;11.60;7.50;;;;;;;21.30;34.50;99820.45;102674;1297;60595;-81
2024/02/10 03:11:17;;;;;;;12.60;7.90;;;;;;;21.31;34.49;99826.80;102716;1289;60566;-79
2024/02/10 03:13:46;;;;;;;10.60;7.20;;;;;;;21.31;34.53;99827.89;102525;1290;72816;-79
2024/02/10 03:16:13;;;;;;;10.60;7.20;;;;;;;21.31;34.62;99826.45;102806;1291;60975;-80
2024/02/10 03:18:41;;;;;;;12.10;7.40;;;;;;;21.31;34.58;99826.27;102686;1291;60511;-81
2024/02/10 03:21:09;;;;;;;13.10;7.90;;;;;;;21.30;34.50;99826.30;102708;1289;73532;-80
2024/02/10 03:23:39;;;;;;;13.30;7.20;;;;;;;21.30;34.52;99834.71;102751;1290;73643;-79
2024/02/10 03:26:05;;;;;;;12.70;7.70;;;;;;;21.30;34.44;99829.38;102761;1294;61812;-80
2024/02/10 03:28:33;;;;;;;12.20;6.70;;;;;;;21.30;34.51;99836.88;102710;1291;60571;-80
2024/02/10 03:31:01;;;;;;;13.80;7.40;;;;;;;21.31;34.56;99832.55;102752;1296;72459;-81
2024/02/10 03:33:30;;;;;;;12.50;7.40;;;;;;;21.30;34.63;99828.65;102647;1291;74471;-80
2024/02/10 03:35:57;;;;;;;11.30;7.50;;;;;;;21.30;34.53;99824.36;102832;1291;61771;-80
2024/02/10 03:38:23;;;;;;;12.10;8.00;;;;;;;21.30;34.46;99835.09;102781;1291;60565;-79
2024/02/10 03:40:49;;;;;;;11.90;7.50;;;;;;;21.30;34.64;99840.14;102692;1292;61765;-82
2024/02/10 03:43:17;;;;;;;11.20;6.80;;;;;;;21.30;34.63;99834.58;102810;1291;60515;-80
2024/02/10 03:45:43;;;;;;;13.30;7.50;;;;;;;21.30;34.53;99836.73;102861;1290;60412;-79
2024/02/10 03:48:09;;;;;;;13.30;7.40;;;;;;;21.30;34.54;99839.58;102777;1291;60598;-81
2024/02/10 03:50:35;;;;;;;13.00;7.20;;;;;;;21.30;34.58;99840.50;102744;1294;60608;-80
2024/02/10 03:53:01;;;;;;;12.30;7.50;;;;;;;21.29;34.63;99841.77;102731;1295;61653;-80
2024/02/10 03:55:29;;;;;;;12.90;7.20;;;;;;;21.30;34.71;99844.98;102560;1291;60668;-79
2024/02/10 03:57:58;;;;;;;12.20;7.50;;;;;;;21.30;34.56;99842.48;102811;1293;60958;-81
2024/02/10 04:00:24;;;;;;;12.40;7.30;;;;;;;21.29;34.50;99841.27;102765;1296;72558;-79
2024/02/10 04:02:50;;;;;;;11.50;7.40;;;;;;;21.29;34.61;99838.44;102741;1294;61795;-79
2024/02/10 04:05:16;;;;;;;13.30;6.90;;;;;;;21.29;34.61;99838.11;102798;1291;60598;-80
2024/02/10 04:07:49;;;;;;;12.00;7.30;;;;;;;21.29;34.47;99838.48;102725;1292;60540;-79
2024/02/10 04:10:16;;;;;;;12.80;7.60;;;;;;;21.29;34.67;99841.65;102194;1294;632106;-80
2024/02/10 04:12:42;;;;;;;12.30;7.40;;;;;;;21.29;34.49;99842.90;102687;1296;60704;-79
2024/02/10 04:15:11;;;;;;;12.80;7.50;;;;;;;21.28;34.59;99839.90;102754;1290;60592;-81
2024/02/10 04:17:38;;;;;;;;;;;;;;;21.29;34.53;99837.56;102872;1291;60995;-79
2024/02/10 04:20:07;;;;;;;11.60;7.60;;;;;;;21.25;34.65;99838.37;102880;1291;71902;-80
2024/02/10 04:22:38;;;;;;;13.80;7.50;;;;;;;21.26;34.59;99842.08;102744;1296;74650;-79
2024/02/10 04:25:09;;;;;;;12.90;7.30;;;;;;;21.26;34.52;99842.08;102662;1296;60686;-79
2024/02/10 04:27:36;;;;;;;10.40;7.50;;;;;;;21.25;34.56;99839.75;102688;1291;60968;-80
2024/02/10 04:30:06;;;;;;;13.00;7.30;;;;;;;21.25;34.46;99837.96;102710;1291;72371;-83
2024/02/10 04:32:32;;;;;;;11.60;7.00;;;;;;;21.26;34.54;99839.21;102704;1290;73654;-81
2024/02/10 04:34:58;;;;;;;16.00;7.70;;;;;;;21.26;34.43;99842.60;102632;1293;61902;-81
2024/02/10 04:37:24;;;;;;;11.90;7.60;;;;;;;21.25;34.56;99849.98;102701;1291;60590;-80
2024/02/10 04:39:50;;;;;;;13.30;7.70;;;;;;;21.26;34.54;99850.66;102697;1296;60736;-81
2024/02/10 04:42:16;;;;;;;13.30;7.70;;;;;;;21.26;34.68;99849.24;102656;1295;60592;-78
2024/02/10 04:44:48;;;;;;;11.70;7.40;;;;;;;21.26;34.65;99852.11;102795;1290;61058;-80
2024/02/10 04:47:18;;;;;;;12.20;7.80;;;;;;;21.25;34.58;99857.50;102744;1291;61810;-81
2024/02/10 04:49:44;;;;;;;11.80;7.50;;;;;;;21.25;34.59;99855.21;102645;1289;73426;-80
2024/02/10 04:52:09;;;;;;;13.50;7.90;;;;;;;21.25;34.79;99856.46;102687;1295;60652;-79
2024/02/10 04:54:36;;;;;;;14.40;7.90;;;;;;;21.24;34.54;99857.01;102676;1291;60686;-80
2024/02/10 04:57:03;;;;;;;15.90;8.30;;;;;;;21.24;34.60;99857.41;102664;1292;60601;-79
2024/02/10 04:59:29;;;;;;;11.70;7.30;;;;;;;21.25;34.64;99860.95;102679;1295;61156;-80
2024/02/10 05:01:55;;;;;;;13.10;8.00;;;;;;;21.24;34.58;99860.44;102664;1290;61022;-79
2024/02/10 05:04:22;;;;;;;11.60;7.70;;;;;;;21.25;34.67;99871.88;102723;1290;61697;-79
2024/02/10 05:06:47;;;;;;;11.90;7.50;;;;;;;21.24;34.58;99865.11;102766;1291;60604;-81
2024/02/10 05:09:14;;;;;;;10.80;7.50;;;;;;;21.25;34.54;99870.80;102698;1291;60491;-80
2024/02/10 05:11:43;;;;;;;13.70;8.20;;;;;;;21.24;34.55;99868.34;102696;1291;61410;-80
2024/02/10 05:14:09;;;;;;;12.00;7.60;;;;;;;21.24;34.56;99870.16;102703;1291;60681;-81
2024/02/10 05:16:36;;;;;;;11.70;7.30;;;;;;;21.24;34.56;99871.23;102895;1290;61041;-80
2024/02/10 05:19:02;;;;;;;14.80;7.80;;;;;;;21.24;34.64;99871.23;102689;1295;72372;-80
2024/02/10 05:21:28;;;;;;;13.80;7.30;;;;;;;21.24;34.54;99872.13;102770;1289;61645;-78
2024/02/10 05:23:54;;;;;;;13.40;7.60;;;;;;;21.23;34.58;99869.67;102714;1291;60569;-79
2024/02/10 05:26:21;;;;;;;12.50;7.60;;;;;;;21.23;34.62;99867.19;102733;1297;60631;-79
2024/02/10 05:28:47;;;;;;;12.20;7.50;;;;;;;21.23;34.58;99865.03;102710;1295;61027;-79
2024/02/10 05:31:14;;;;;;;14.00;8.00;;;;;;;21.23;34.63;99869.33;102695;1291;74678;-80
2024/02/10 05:33:43;;;;;;;11.90;7.40;;;;;;;21.23;34.75;99872.77;102715;1289;60540;-81
2024/02/10 05:36:10;;;;;;;13.00;7.90;;;;;;;21.22;34.74;99883.33;102825;1291;60601;-78
2024/02/10 05:38:39;;;;;;;11.40;7.30;;;;;;;21.23;34.75;99884.75;102899;1290;73244;-79
2024/02/10 05:41:05;;;;;;;12.40;7.90;;;;;;;21.22;34.72;99888.17;102656;1295;74505;-79
2024/02/10 05:43:34;;;;;;;11.20;7.70;;;;;;;21.22;34.67;99886.97;102919;1289;61773;-80
2024/02/10 05:46:06;;;;;;;11.80;7.60;;;;;;;21.22;34.73;99884.44;102748;1291;60537;-79
2024/02/10 05:48:33;;;;;;;12.90;7.50;;;;;;;21.22;34.63;99885.20;102808;1292;72341;-79
2024/02/10 05:51:01;;;;;;;14.30;8.00;;;;;;;21.22;34.56;99888.41;102627;1296;61147;-81
2024/02/10 05:53:27;;;;;;;12.00;8.30;;;;;;;21.21;34.60;99888.28;102668;1290;61233;-80
2024/02/10 05:55:53;;;;;;;13.20;8.00;;;;;;;21.21;34.50;99889.02;102860;1291;61673;-79
2024/02/10 05:58:27;;;;;;;12.30;7.80;;;;;;;21.22;34.62;99893.08;102718;1292;72223;-80
2024/02/10 06:00:52;;;;;;;12.50;7.60;;;;;;;21.21;34.61;99891.17;102710;1289;74084;-80
2024/02/10 06:03:18;;;;;;;10.70;7.30;;;;;;;21.21;34.68;99898.98;102828;1294;61208;-80
2024/02/10 06:05:44;;;;;;;12.20;7.10;;;;;;;21.21;34.69;99903.15;102897;1294;61158;-79
2024/02/10 06:08:12;;;;;;;10.90;7.20;;;;;;;21.21;34.71;99907.81;102863;1292;61855;-81
2024/02/10 06:10:39;;;;;;;14.60;7.90;;;;;;;21.21;34.67;99922.14;102691;1295;60709;-79
2024/02/10 06:13:05;;;;;;;13.60;7.60;;;;;;;21.20;34.89;99912.36;102730;1291;61021;-80
2024/02/10 06:15:31;;;;;;;12.10;7.40;;;;;;;21.20;34.57;99914.13;102655;1291;60608;-81
2024/02/10 06:18:03;;;;;;;12.10;7.60;;;;;;;21.20;34.64;99913.64;102796;1291;61762;-80
2024/02/10 06:20:29;;;;;;;14.10;7.70;;;;;;;21.20;34.65;99914.53;102845;1291;74597;-79
2024/02/10 06:22:55;;;;;;;11.70;7.40;;;;;;;21.20;34.72;99922.23;102733;1291;61010;-79
2024/02/10 06:25:27;;;;;;;12.90;7.30;;;;;;;21.19;34.85;99924.77;102700;1291;60588;-81
2024/02/10 06:27:54;;;;;;;13.10;7.20;;;;;;;21.19;34.68;99930.84;102701;1291;72556;-81
2024/02/10 06:30:21;;;;;;;11.80;7.30;;;;;;;21.19;34.73;99931.23;102793;1289;73846;-81
2024/02/10 06:32:48;;;;;;;10.60;7.00;;;;;;;21.19;34.60;99931.63;102798;1291;60584;-80
2024/02/10 06:35:13;;;;;;;11.70;7.60;;;;;;;21.19;34.70;99924.64;102695;1289;60625;-80
2024/02/10 06:37:42;;;;;;;11.60;7.40;;;;;;;21.19;34.68;99928.94;102716;1291;60763;-80
2024/02/10 06:40:09;;;;;;;13.70;7.80;;;;;;;21.19;34.66;99925.52;102735;1291;73840;-80
2024/02/10 06:42:36;;;;;;;11.80;7.60;;;;;;;21.18;34.63;99930.58;102766;1291;61768;-80
2024/02/10 06:45:24;;;;;;;;;;;;;;;;;;;;;
2024/02/10 06:47:50;;;;;;;12.60;7.70;;;;;;;21.18;34.68;99917.21;102698;1294;73852;-80
2024/02/10 06:50:23;;;;;;;11.80;7.50;;;;;;;21.17;34.64;99920.63;102714;1290;60757;-81
2024/02/10 06:52:53;;;;;;;10.60;7.50;;;;;;;21.18;34.68;99921.86;102658;1291;61236;-80
2024/02/10 06:55:19;;;;;;;11.20;7.20;;;;;;;21.17;34.67;99919.59;102804;1291;60607;-79
2024/02/10 06:57:48;;;;;;;11.90;7.60;;;;;;;21.17;34.72;99920.31;102724;1291;71908;-81
2024/02/10 07:00:15;;;;;;;11.60;7.40;;;;;;;21.17;34.74;99925.32;102717;1291;74590;-80
2024/02/10 07:02:44;;;;;;;12.80;7.30;;;;;;;21.17;34.80;99927.83;102629;1294;61018;-81
2024/02/10 07:05:12;;;;;;;12.30;7.30;;;;;;;21.17;34.75;99926.92;102527;1300;61145;-80
2024/02/10 07:07:43;;;;;;;12.60;7.20;;;;;;;21.16;34.72;99920.20;102713;1295;72422;-79
2024/02/10 07:10:13;;;;;;;11.00;7.30;;;;;;;21.17;34.72;99924.46;102568;1292;73849;-80
2024/02/10 07:12:45;;;;;;;;;;;;;;;21.16;34.65;99925.05;102537;1299;60555;-79
2024/02/10 07:15:18;;;;;;;12.20;7.90;;;;;;;21.14;34.69;99925.83;102601;1294;61714;-79
2024/02/10 07:17:50;;;;;;;12.00;7.40;;;;;;;21.14;34.73;99926.11;102616;1293;73321;-78
2024/02/10 07:20:22;;;;;;;9.80;7.00;;;;;;;21.14;34.82;99932.59;102632;1294;74483;-80
2024/02/10 07:22:50;;;;;;;11.70;7.60;;;;;;;21.15;34.68;99936.83;102596;1294;60779;-80
2024/02/10 07:25:16;;;;;;;12.10;6.90;;;;;;;21.14;34.64;99937.91;102631;1294;60566;-79
2024/02/10 07:27:46;;;;;;;10.90;7.80;;;;;;;21.14;34.73;99939.37;102596;1294;61338;-79
2024/02/10 07:30:13;;;;;;;11.30;7.40;;;;;;;21.14;34.69;99937.36;102590;1294;74665;-80
2024/02/10 07:32:39;;;;;;;11.50;7.30;;;;;;;21.15;34.69;99939.48;102294;1298;61958;-81
2024/02/10 07:35:05;;;;;;;11.10;7.10;;;;;;;21.14;34.89;99943.80;102284;1293;60634;-80
2024/02/10 07:37:32;;;;;;;12.00;7.80;;;;;;;21.15;34.66;99938.75;102605;1294;60581;-79
2024/02/10 07:40:03;;;;;;;12.00;7.40;;;;;;;21.15;34.73;99942.87;102634;1291;74676;-79
2024/02/10 07:42:29;;;;;;;12.10;7.50;;;;;;;21.15;34.77;99938.77;102723;1291;60685;-78
2024/02/10 07:44:56;;;;;;;12.00;7.60;;;;;;;21.15;34.79;99937.31;102761;1290;61083;-79
2024/02/10 07:47:22;;;;;;;9.80;7.30;;;;;;;21.15;34.80;99937.30;102777;1291;60534;-80
2024/02/10 07:49:50;;;;;;;11.20;7.30;;;;;;;21.15;34.73;99939.63;102802;1297;61145;-81
2024/02/10 07:52:18;;;;;;;12.30;7.30;;;;;;;21.15;34.76;99938.20;102771;1291;60517;-80
2024/02/10 07:54:46;;;;;;;12.30;7.40;;;;;;;21.15;34.65;99939.99;102884;1291;60871;-80
2024/02/10 07:57:19;;;;;;;11.50;7.10;;;;;;;21.16;34.73;99943.89;102843;1290;72501;-79
2024/02/10 07:59:55;;;;;;;12.60;7.50;;;;;;;21.15;34.71;99941.80;102751;1289;74603;-80
2024/02/10 08:02:23;;;;;;;11.60;7.30;;;;;;;21.15;34.75;99938.55;102791;1295;61397;-80
2024/02/10 08:04:51;;;;;;;12.40;6.90;;;;;;;21.15;34.73;99938.38;102764;1291;61895;-80
2024/02/10 08:07:21;;;;;;;11.20;6.90;;;;;;;21.15;34.64;99939.31;102843;1294;72387;-80
2024/02/10 08:09:47;;;;;;;;;;;;;;;21.15;34.63;99938.92;102723;1296;75218;-80
2024/02/10 08:12:20;;;;;;;9.30;6.80;;;;;;;21.12;34.71;99938.05;102688;1291;60750;-80
2024/02/10 08:14:50;;;;;;;12.00;7.40;;;;;;;21.14;34.68;99937.77;102813;1292;60587;-81
2024/02/10 08:17:26;;;;;;;;;;;;;;;21.14;34.84;99934.90;102848;1291;72356;-80
2024/02/10 08:19:56;;;;;;;12.40;7.20;;;;;;;21.12;34.77;99939.19;102653;1291;74593;-79
2024/02/10 08:22:25;;;;;;;10.90;6.50;;;;;;;21.13;34.73;99939.96;102794;1291;60607;-80
2024/02/10 08:24:55;;;;;;;10.70;6.90;;;;;;;21.13;34.69;99940.14;102745;1291;60975;-82
2024/02/10 08:27:28;;;;;;;9.70;6.90;;;;;;;21.14;34.59;99941.34;102837;1291;73462;-80
2024/02/10 08:29:54;;;;;;;12.40;7.00;;;;;;;21.14;34.73;99938.28;102770;1295;73650;-80
2024/02/10 08:32:19;;;;;;;10.50;6.90;;;;;;;21.15;34.61;99942.89;102715;1297;60513;-81
2024/02/10 08:34:45;;;;;;;11.20;6.80;;;;;;;21.15;34.67;99946.11;102645;1291;61232;-80
2024/02/10 08:37:15;;;;;;;9.30;6.20;;;;;;;21.15;34.69;99940.91;102750;1294;72395;-79
2024/02/10 08:39:45;;;;;;;11.10;6.60;;;;;;;21.15;34.85;99942.47;102965;1292;61086;-79
2024/02/10 08:42:15;;;;;;;10.20;6.80;;;;;;;21.16;34.69;99940.13;102782;1289;61546;-80
2024/02/10 08:44:40;;;;;;;;;;;;;;;21.16;34.84;99935.64;102953;1292;61703;-81
2024/02/10 08:47:06;;;;;;;9.80;6.70;;;;;;;21.13;34.71;99943.70;102934;1291;60598;-79
2024/02/10 08:49:36;;;;;;;10.50;6.50;;;;;;;21.15;34.85;99944.86;102896;1291;61876;-79
2024/02/10 08:52:03;;;;;;;10.30;6.50;;;;;;;21.15;34.75;99942.34;102725;1296;60586;-80
2024/02/10 08:54:32;;;;;;;11.20;6.40;;;;;;;21.16;34.80;99945.30;102746;1291;61862;-80
2024/02/10 08:57:02;;;;;;;9.90;6.40;;;;;;;21.16;34.79;99945.27;102709;1291;73446;-80
2024/02/10 08:59:31;;;;;;;9.90;6.70;;;;;;;21.16;34.71;99937.56;102662;1291;74144;-82
2024/02/10 09:02:04;;;;;;;13.00;6.50;;;;;;;21.16;34.78;99941.13;102956;1294;61084;-79
2024/02/10 09:04:30;;;;;;;9.80;6.40;;;;;;;21.17;34.67;99938.77;102996;1291;61109;-82
2024/02/10 09:07:00;;;;;;;10.40;6.70;;;;;;;21.17;34.64;99946.05;102962;1291;60512;-78
2024/02/10 09:09:30;;;;;;;9.50;6.50;;;;;;;21.17;34.83;99945.17;102925;1291;74651;-80
2024/02/10 09:11:56;;;;;;;10.60;6.20;;;;;;;21.17;34.65;99946.23;102941;1294;60599;-80
2024/02/10 09:14:21;;;;;;;10.50;6.80;;;;;;;21.17;34.78;99944.98;102718;1291;60598;-80
2024/02/10 09:16:47;;;;;;;10.40;6.40;;;;;;;21.18;34.83;99948.52;102944;1293;61076;-79
2024/02/10 09:19:15;;;;;;;11.30;6.20;;;;;;;21.18;34.81;99950.86;102664;1295;60542;-79
2024/02/10 09:21:41;;;;;;;9.60;6.60;;;;;;;21.17;34.77;99952.67;102658;1291;60590;-81
2024/02/10 09:24:13;;;;;;;10.60;6.50;;;;;;;21.17;34.86;99950.89;102661;1291;61860;-80
2024/02/10 09:26:43;;;;;;;10.00;6.10;;;;;;;21.17;34.84;99953.20;102677;1291;72395;-79
2024/02/10 09:29:08;;;;;;;9.30;6.70;;;;;;;21.17;34.84;99956.82;103008;1291;73682;-80
2024/02/10 09:31:34;;;;;;;9.10;6.10;;;;;;;21.18;34.95;99956.77;102858;1294;60865;-79
2024/02/10 09:34:01;;;;;;;10.50;6.40;;;;;;;21.18;34.97;99955.87;102672;1291;60617;-81
2024/02/10 09:36:28;;;;;;;9.80;6.30;;;;;;;21.17;35.00;99953.73;102706;1291;60944;-80
2024/02/10 09:38:54;;;;;;;10.80;6.30;;;;;;;21.17;34.99;99954.28;102592;1299;60727;-80
2024/02/10 09:41:20;;;;;;;10.30;6.50;;;;;;;21.17;34.82;99952.50;102723;1292;60579;-81
2024/02/10 09:43:48;;;;;;;8.80;6.00;;;;;;;21.18;34.92;99954.26;102653;1291;60591;-79
2024/02/10 09:46:14;;;;;;;10.10;6.40;;;;;;;21.18;35.02;99949.62;102736;1297;60603;-80
2024/02/10 09:48:47;;;;;;;8.80;6.60;;;;;;;21.17;34.93;99950.86;102678;1291;61718;-81
2024/02/10 09:51:13;;;;;;;10.50;6.40;;;;;;;21.18;34.99;99947.30;102665;1295;61954;-79
2024/02/10 09:53:42;;;;;;;9.90;6.20;;;;;;;21.17;34.99;99940.52;102652;1290;60617;-80
2024/02/10 09:56:15;;;;;;;10.90;6.60;;;;;;;21.17;34.96;99934.10;102618;1291;71557;-80
2024/02/10 09:58:45;;;;;;;9.70;6.20;;;;;;;21.17;35.14;99939.27;102593;1290;73775;-79
2024/02/10 10:01:11;;;;;;;11.50;6.60;;;;;;;21.17;35.15;99937.70;102916;1291;60610;-80
2024/02/10 10:03:37;;;;;;;10.40;6.20;;;;;;;21.17;35.23;99939.08;102624;1291;60474;-80
2024/02/10 10:06:09;;;;;;;11.70;6.60;;;;;;;21.17;35.09;99943.06;102629;1298;60868;-78
2024/02/10 10:08:37;;;;;;;10.30;6.70;;;;;;;21.17;35.13;99940.89;102759;1292;73502;-80
2024/02/10 10:11:07;;;;;;;10.40;6.60;;;;;;;21.17;35.18;99935.70;102660;1290;60701;-79
2024/02/10 10:13:39;;;;;;;11.40;6.40;;;;;;;21.17;35.15;99933.20;102906;1294;60500;-80
2024/02/10 10:16:09;;;;;;;8.80;5.90;;;;;;;21.17;35.23;99936.44;102837;1292;72472;-79
2024/02/10 10:18:35;;;;;;;10.70;6.20;;;;;;;21.17;35.44;99937.49;102906;1294;73870;-80
2024/02/10 10:21:04;;;;;;;11.30;6.50;;;;;;;21.17;35.29;99934.46;102694;1292;60531;-82
2024/02/10 10:23:31;;;;;;;10.10;6.50;;;;;;;21.17;35.30;99934.11;102761;1292;61319;-80
2024/02/10 10:25:57;;;;;;;11.50;6.60;;;;;;;21.17;35.23;99933.20;102672;1295;73270;-79
2024/02/10 10:28:22;;;;;;;9.50;6.20;;;;;;;21.17;35.18;99929.98;102642;1289;61710;-81
2024/02/10 10:30:48;;;;;;;11.70;6.40;;;;;;;21.17;35.51;99928.14;102724;1291;60551;-82
2024/02/10 10:33:20;;;;;;;12.10;6.80;;;;;;;21.17;35.24;99925.83;102884;1291;62629;-80
2024/02/10 10:35:47;;;;;;;9.90;6.30;;;;;;;21.17;35.17;99924.77;102711;1291;72594;-79
2024/02/10 10:38:13;;;;;;;10.10;6.70;;;;;;;21.17;35.20;99926.58;102684;1291;60547;-80
2024/02/10 10:40:38;;;;;;;9.20;5.80;;;;;;;21.17;35.07;99924.41;102833;1291;60579;-79
2024/02/10 10:43:05;;;;;;;9.60;6.10;;;;;;;21.17;35.06;99918.15;102771;1291;60675;-80
2024/02/10 10:45:34;;;;;;;9.00;6.30;;;;;;;21.18;35.01;99919.19;102672;1294;60609;-79
2024/02/10 10:48:02;;;;;;;10.10;6.40;;;;;;;21.18;35.02;99910.95;102610;1294;74460;-81
2024/02/10 10:50:30;;;;;;;9.60;6.70;;;;;;;21.17;35.01;99906.16;102664;1289;61882;-80
2024/02/10 10:53:04;;;;;;;11.50;6.20;;;;;;;21.18;34.93;99909.16;102763;1291;61608;-80
2024/02/10 10:55:31;;;;;;;11.10;6.40;;;;;;;21.18;34.97;99911.83;102693;1294;72506;-80
2024/02/10 10:57:57;;;;;;;9.80;6.40;;;;;;;21.18;35.04;99917.55;102877;1292;73401;-79
2024/02/10 11:00:25;;;;;;;11.60;6.60;;;;;;;21.18;34.95;99912.38;102740;1296;60538;-80
2024/02/10 11:02:53;;;;;;;9.90;6.90;;;;;;;21.18;34.93;99909.13;102642;1297;61733;-81
2024/02/10 11:05:19;;;;;;;11.10;6.80;;;;;;;21.18;34.73;99907.73;102822;1295;72613;-80
2024/02/10 11:07:48;;;;;;;10.30;6.20;;;;;;;21.18;34.76;99911.83;103198;1296;60692;-78
2024/02/10 11:10:37;;;;;;;10.90;6.50;;;;;;;21.18;34.80;99917.89;103389;1294;60616;-79
2024/02/10 11:13:03;;;;;;;;;;;;;;;21.18;34.85;99915.38;103226;1294;60502;-79
2024/02/10 11:15:29;;;;;;;10.50;6.00;;;;;;;21.16;34.86;99912.70;103349;1292;60568;-79
2024/02/10 11:18:02;;;;;;;9.60;6.50;;;;;;;21.17;34.83;99916.70;103154;1291;60667;-78
2024/02/10 11:20:39;;;;;;;11.00;6.30;;;;;;;21.18;34.70;99913.83;103308;1296;61117;-78
2024/02/10 11:23:11;;;;;;;9.50;6.40;;;;;;;21.19;34.67;99914.98;102765;1291;61292;-80
2024/02/10 11:25:39;;;;;;;10.00;6.10;;;;;;;21.19;34.66;99911.02;102759;1295;72383;-80